createdAt,value
2019-04-16T00:04:10.220Z,8.2
2019-04-16T00:14:24.133Z,8.1
2019-04-16T00:24:38.254Z,7.9
2019-04-16T00:35:24.206Z,7.6
2019-04-16T00:45:38.755Z,7.6
2019-04-16T00:56:07.460Z,7.4
2019-04-16T01:06:21.048Z,7.2
2019-04-16T01:17:07.255Z,6.9
2019-04-16T01:27:20.813Z,6.9
2019-04-16T01:37:35.742Z,6.8
2019-04-16T01:48:21.365Z,6.4
2019-04-16T01:58:35.858Z,6.4
2019-04-16T02:09:22.431Z,6.3
2019-04-16T02:19:32.757Z,6.1
2019-04-16T02:29:42.080Z,6.0
2019-04-16T02:39:56.786Z,5.9
2019-04-16T02:51:04.918Z,5.7
2019-04-16T03:01:11.928Z,5.7
2019-04-16T03:13:00.955Z,5.5
2019-04-16T03:25:53.859Z,5.4
2019-04-16T03:37:44.783Z,5.2
2019-04-16T03:50:23.435Z,5.1
2019-04-16T04:03:03.576Z,4.9
2019-04-16T04:13:18.562Z,4.9
2019-04-16T04:24:02.538Z,4.8
2019-04-16T04:34:23.643Z,4.6
2019-04-16T04:44:37.601Z,4.5
2019-04-16T04:54:53.947Z,4.4
2019-04-16T05:05:02.570Z,4.3
2019-04-16T05:15:29.279Z,4.2
2019-04-16T05:25:40.171Z,4.1
2019-04-16T05:36:25.614Z,4.1
2019-04-16T05:47:10.376Z,4.1
2019-04-16T05:58:02.700Z,4.2
2019-04-16T06:08:49.975Z,4.3
2019-04-16T06:20:10.962Z,4.5
2019-04-16T06:30:24.924Z,4.4
2019-04-16T06:40:40.187Z,4.6
2019-04-16T06:50:54.443Z,4.8
2019-04-16T07:01:09.107Z,5.0
2019-04-16T07:11:54.938Z,5.6
2019-04-16T07:22:41.896Z,6.1
2019-04-16T07:46:16.428Z,9.6
2019-04-16T08:53:31.158Z,21.3
2019-04-16T09:29:16.423Z,21.7
2019-04-16T09:52:32.351Z,22.0
2019-04-16T10:06:42.631Z,23.2
2019-04-16T10:16:55.994Z,23.2
2019-04-16T10:27:52.057Z,23.9
2019-04-16T10:38:42.998Z,24.6
2019-04-16T10:51:06.733Z,27.0
2019-04-16T11:01:20.292Z,27.0
2019-04-16T11:12:06.107Z,28.9
2019-04-16T11:22:54.067Z,28.9
2019-04-16T11:33:39.927Z,29.9
2019-04-16T11:43:54.180Z,29.9
2019-04-16T11:54:41.185Z,30.3
2019-04-16T12:04:55.932Z,30.2
2019-04-16T12:21:11.352Z,30.0
2019-04-16T12:32:21.881Z,29.7
2019-04-16T12:58:35.237Z,29.2
2019-04-16T13:10:43.569Z,29.1
2019-04-16T13:34:45.781Z,29.0
2019-04-16T13:47:51.802Z,28.9
2019-04-16T13:58:02.247Z,28.9
2019-04-16T14:09:09.457Z,28.9
2019-04-16T14:19:57.358Z,28.9
2019-04-16T14:30:44.088Z,28.8
2019-04-16T14:40:58.508Z,28.8
2019-04-16T14:51:12.213Z,28.6
2019-04-16T15:01:25.912Z,28.5
2019-04-16T15:11:39.711Z,28.3
2019-04-16T15:21:52.913Z,28.1
2019-04-16T15:39:47.761Z,25.9
2019-04-16T15:50:36.593Z,25.8
2019-04-16T16:03:18.179Z,25.3
2019-04-16T16:13:32.210Z,25.3
2019-04-16T16:23:46.370Z,24.9
2019-04-16T16:34:00.377Z,24.2
2019-04-16T16:45:02.925Z,23.0
2019-04-16T16:55:17.612Z,23.0
2019-04-16T17:06:13.251Z,22.0
2019-04-16T19:02:29.454Z,17.2
2019-04-16T19:48:00.117Z,15.5
2019-04-16T20:19:53.043Z,14.5
2019-04-16T22:28:38.597Z,11.4
2019-04-16T22:39:30.336Z,11.2
2019-04-16T22:50:17.275Z,11.0
2019-04-16T23:00:27.890Z,11.0
2019-04-16T23:10:38.944Z,10.8
2019-04-16T23:20:53.635Z,10.6
2019-04-16T23:31:07.868Z,10.4
2019-04-16T23:41:21.454Z,10.2
2019-04-16T23:51:35.032Z,10.1
